Time;durP1;ratioP1;P1;durP2;ratioP2;P2;SDS_P1;SDS_P2;PMS_P1;PMS_P2;Temp;Humidity;BMP_temperature;BMP_pressure;BME280_temperature;BME280_humidity;BME280_pressure;Samples;Min_cycle;Max_cycle;Signal;HPM_P1;HPM_P2
2021/09/07 00:01:43;;;;;;;;;;;;;;;;;;5111823;27;19922;-67
2021/09/07 00:04:08;;;;;;;;;;;;;;;;;;5110467;28;19995;-66
2021/09/07 00:06:35;;;;;;;;;;;;;;;;;;5111926;28;19962;-67
2021/09/07 00:09:00;;;;;;;;;;;;;;;;;;5111249;28;19908;-66
2021/09/07 00:15:02;;;;;;;;;;;;;;;;;;5112286;27;19916;-66
2021/09/07 00:19:28;;;;;;;;;;;;;;;;;;5112059;27;20291;-66
2021/09/07 00:21:54;;;;;;;;;;;;;;;;;;5111780;28;20380;-66
2021/09/07 00:24:20;;;;;;;;;;;;;;;;;;5110053;28;19915;-69
2021/09/07 00:26:46;;;;;;;;;;;;;;;;;;5111730;28;19944;-69
2021/09/07 00:29:12;;;;;;;;;;;;;;;;;;5111759;28;19931;-67
2021/09/07 00:31:38;;;;;;;;;;;;;;;;;;5111275;28;19912;-69
2021/09/07 00:34:04;;;;;;;;;;;;;;;;;;5110330;28;19965;-69
2021/09/07 00:36:30;;;;;;;;;;;;;;;;;;5111276;28;19915;-67
2021/09/07 00:38:56;;;;;;;;;;;;;;;;;;5110125;28;19923;-68
2021/09/07 00:42:38;;;;;;;;;;;;;;;;;;5112168;27;19938;-66
2021/09/07 00:47:29;;;;;;;;;;;;;;;;;;5111915;27;19916;-67
2021/09/07 00:49:55;;;;;;;;;;;;;;;;;;5111803;28;19995;-67
2021/09/07 00:52:21;;;;;;;;;;;;;;;;;;5111238;28;19943;-67
2021/09/07 00:54:47;;;;;;;;;;;;;;;;;;5110614;28;19908;-68
2021/09/07 00:57:44;;;;;;;;;;;;;;;;;;5091074;27;19922;-66
2021/09/07 01:00:10;;;;;;;;;;;;;;;;;;5091418;28;19912;-67
2021/09/07 01:03:15;;;;;;;;;;;;;;;;;;5092388;28;19916;-66
2021/09/07 01:05:41;;;;;;;;;;;;;;;;;;5089783;28;19913;-69
2021/09/07 01:10:21;;;;;;;;;;;;;;;;;;5091750;27;19912;-67
2021/09/07 01:15:20;;;;;;;;;;;;;;;;;;5091922;27;19934;-66
2021/09/07 01:17:46;;;;;;;;;;;;;;;;;;5090208;28;20436;-66
2021/09/07 01:20:12;;;;;;;;;;;;;;;;;;5091012;28;20004;-67
2021/09/07 01:25:05;;;;;;;;;;;;;;;;;;5112183;27;19922;-66
2021/09/07 01:27:48;;;;;;;;;;;;;;;;;;5152566;27;20002;-66
2021/09/07 01:30:14;;;;;;;;;;;;;;;;;;5152994;27;19962;-66
2021/09/07 01:33:51;;;;;;;;;;;;;;;;;;5111849;27;19916;-67
2021/09/07 01:36:42;;;;;;;;;;;;;;;;;;5112601;27;19916;-66
2021/09/07 01:39:08;;;;;;;;;;;;;;;;;;5110572;28;20003;-69
2021/09/07 01:41:34;;;;;;;;;;;;;;;;;;5111427;28;20427;-66
2021/09/07 01:44:01;;;;;;;;;;;;;;;;;;5112009;28;19915;-67
2021/09/07 01:46:27;;;;;;;;;;;;;;;;;;5111973;28;19908;-67
2021/09/07 01:48:53;;;;;;;;;;;;;;;;;;5111197;28;19958;-67
2021/09/07 01:52:14;;;;;;;;;;;;;;;;;;5112375;27;19922;-66
2021/09/07 01:56:24;;;;;;;;;;;;;;;;;;5091584;27;20300;-66
2021/09/07 01:58:50;;;;;;;;;;;;;;;;;;5091412;28;19913;-69
2021/09/07 02:04:21;;;;;;;;;;;;;;;;;;5112256;27;19922;-68
2021/09/07 02:06:47;;;;;;;;;;;;;;;;;;5111741;28;20003;-68
2021/09/07 02:09:13;;;;;;;;;;;;;;;;;;5111465;28;19999;-68
2021/09/07 02:12:37;;;;;;;;;;;;;;;;;;5153438;27;20344;-66
2021/09/07 02:15:55;;;;;;;;;;;;;;;;;;5111786;27;19922;-66
2021/09/07 02:21:41;;;;;;;;;;;;;;;;;;5111787;27;20311;-66
2021/09/07 02:24:07;;;;;;;;;;;;;;;;;;5111395;28;20288;-66
2021/09/07 02:26:33;;;;;;;;;;;;;;;;;;5111792;28;19953;-66
2021/09/07 02:30:54;;;;;;;;;;;;;;;;;;5111528;27;19916;-67
2021/09/07 02:35:34;;;;;;;;;;;;;;;;;;5091590;27;19916;-66
2021/09/07 02:38:00;;;;;;;;;;;;;;;;;;5091030;28;19913;-67
2021/09/07 02:40:26;;;;;;;;;;;;;;;;;;5091351;28;20011;-67
2021/09/07 02:44:19;;;;;;;;;;;;;;;;;;5152710;27;19998;-66
2021/09/07 02:46:45;;;;;;;;;;;;;;;;;;5152947;27;20383;-67
2021/09/07 02:49:11;;;;;;;;;;;;;;;;;;5152883;27;19943;-66
2021/09/07 02:51:37;;;;;;;;;;;;;;;;;;5152506;27;20311;-67
2021/09/07 02:57:27;;;;;;;;;;;;;;;;;;5153158;27;19998;-68
2021/09/07 02:59:56;;;;;;;;;;;;;;;;;;5152976;27;20371;-67
2021/09/07 03:02:22;;;;;;;;;;;;;;;;;;5152898;27;19907;-67
2021/09/07 03:04:49;;;;;;;;;;;;;;;;;;5152443;27;19930;-67
2021/09/07 03:07:14;;;;;;;;;;;;;;;;;;5134226;27;19908;-67
2021/09/07 03:11:19;;;;;;;;;;;;;;;;;;5111586;27;19916;-66
2021/09/07 03:13:45;;;;;;;;;;;;;;;;;;5110539;28;20330;-66
2021/09/07 03:16:11;;;;;;;;;;;;;;;;;;5111719;28;19912;-66
2021/09/07 03:18:50;;;;;;;;;;;;;;;;;;5091619;27;19934;-66
2021/09/07 03:21:16;;;;;;;;;;;;;;;;;;5091430;28;19919;-66
2021/09/07 03:23:42;;;;;;;;;;;;;;;;;;5091312;28;19912;-66
2021/09/07 03:27:39;;;;;;;;;;;;;;;;;;5091551;27;19912;-66
2021/09/07 03:30:05;;;;;;;;;;;;;;;;;;5091369;28;20379;-66
2021/09/07 03:37:24;;;;;;;;;;;;;;;;;;5112292;27;20414;-66
2021/09/07 03:44:45;;;;;;;;;;;;;;;;;;5111769;27;19923;-66
2021/09/07 03:47:11;;;;;;;;;;;;;;;;;;5111330;28;20003;-67
2021/09/07 03:51:57;;;;;;;;;;;;;;;;;;5092146;27;19916;-67
2021/09/07 03:54:23;;;;;;;;;;;;;;;;;;5090964;28;19999;-67
2021/09/07 03:58:44;;;;;;;;;;;;;;;;;;5091973;28;19916;-67
2021/09/07 04:01:10;;;;;;;;;;;;;;;;;;5090951;28;19913;-68
2021/09/07 04:03:36;;;;;;;;;;;;;;;;;;5091906;28;20285;-68
2021/09/07 04:06:02;;;;;;;;;;;;;;;;;;5091247;28;19908;-67
2021/09/07 04:08:58;;;;;;;;;;;;;;;;;;5111468;27;19916;-66
2021/09/07 04:13:26;;;;;;;;;;;;;;;;;;5112418;27;19923;-67
2021/09/07 04:15:52;;;;;;;;;;;;;;;;;;5111571;28;20003;-68
2021/09/07 04:18:18;;;;;;;;;;;;;;;;;;5111687;28;19999;-67
2021/09/07 04:23:02;;;;;;;;;;;;;;;;;;5111608;27;19923;-67
2021/09/07 04:25:28;;;;;;;;;;;;;;;;;;5111775;28;19912;-67
2021/09/07 04:27:54;;;;;;;;;;;;;;;;;;5111967;28;19908;-67
2021/09/07 04:30:20;;;;;;;;;;;;;;;;;;5110073;28;19908;-67
2021/09/07 04:34:28;;;;;;;;;;;;;;;;;;5092099;28;19916;-67
2021/09/07 04:36:54;;;;;;;;;;;;;;;;;;5090987;28;19958;-68
2021/09/07 04:43:40;;;;;;;;;;;;;;;;;;5091454;28;19916;-66
2021/09/07 04:46:06;;;;;;;;;;;;;;;;;;5091423;28;20440;-68
2021/09/07 04:52:13;;;;;;;;;;;;;;;;;;5092098;27;19913;-67
2021/09/07 04:54:39;;;;;;;;;;;;;;;;;;5091440;28;20444;-69
2021/09/07 05:00:15;;;;;;;;;;;;;;;;;;5111899;27;19967;-66
2021/09/07 05:02:58;;;;;;;;;;;;;;;;;;5111856;27;19916;-69
2021/09/07 05:05:24;;;;;;;;;;;;;;;;;;5111343;28;20007;-69
2021/09/07 05:07:50;;;;;;;;;;;;;;;;;;5111738;28;19943;-72
2021/09/07 05:10:16;;;;;;;;;;;;;;;;;;5111546;28;20391;-70
2021/09/07 05:17:11;;;;;;;;;;;;;;;;;;5091617;27;19912;-68
2021/09/07 05:19:37;;;;;;;;;;;;;;;;;;5091128;28;19923;-69
2021/09/07 05:22:03;;;;;;;;;;;;;;;;;;5084223;28;19913;-69
2021/09/07 05:24:47;;;;;;;;;;;;;;;;;;5088027;27;19923;-72
2021/09/07 05:27:13;;;;;;;;;;;;;;;;;;5088577;28;19954;-70
2021/09/07 05:29:39;;;;;;;;;;;;;;;;;;5090608;28;19908;-73
2021/09/07 05:32:05;;;;;;;;;;;;;;;;;;5087564;28;19999;-71
2021/09/07 05:39:06;;;;;;;;;;;;;;;;;;5090598;27;19918;-69
2021/09/07 05:41:32;;;;;;;;;;;;;;;;;;5090876;28;19919;-69
2021/09/07 05:43:58;;;;;;;;;;;;;;;;;;5090465;28;19908;-69
2021/09/07 05:46:24;;;;;;;;;;;;;;;;;;5090097;28;19908;-68
2021/09/07 05:53:12;;;;;;;;;;;;;;;;;;5090604;27;20678;-72
2021/09/07 05:55:38;;;;;;;;;;;;;;;;;;5091035;28;20011;-72
2021/09/07 05:58:04;;;;;;;;;;;;;;;;;;5091087;28;20425;-72
2021/09/07 06:00:46;;;;;;;;;;;;;;;;;;5090502;27;19920;-72
2021/09/07 06:03:12;;;;;;;;;;;;;;;;;;5078356;28;19955;-72
2021/09/07 06:08:00;;;;;;;;;;;;;;;;;;5089318;27;19916;-71
2021/09/07 06:10:26;;;;;;;;;;;;;;;;;;5090286;28;20014;-70
2021/09/07 06:12:52;;;;;;;;;;;;;;;;;;5089462;28;20336;-69
2021/09/07 06:15:18;;;;;;;;;;;;;;;;;;5088726;28;20003;-70
2021/09/07 06:20:03;;;;;;;;;;;;;;;;;;5089823;28;19920;-71
2021/09/07 06:24:19;;;;;;;;;;;;;;;;;;5091103;27;19916;-73
2021/09/07 06:26:45;;;;;;;;;;;;;;;;;;5090081;28;19999;-79
2021/09/07 06:29:11;;;;;;;;;;;;;;;;;;5090302;28;20351;-74
2021/09/07 06:31:37;;;;;;;;;;;;;;;;;;5089758;28;19912;-73
2021/09/07 06:35:58;;;;;;;;;;;;;;;;;;5090498;27;19916;-73
2021/09/07 06:38:24;;;;;;;;;;;;;;;;;;5090172;28;19999;-78
2021/09/07 06:41:33;;;;;;;;;;;;;;;;;;5110580;27;19916;-70
2021/09/07 06:43:59;;;;;;;;;;;;;;;;;;5110522;27;19912;-73
2021/09/07 06:47:34;;;;;;;;;;;;;;;;;;5106470;27;19916;-69
2021/09/07 06:50:01;;;;;;;;;;;;;;;;;;5109772;28;19912;-73
2021/09/07 06:53:38;;;;;;;;;;;;;;;;;;5090838;27;20275;-72
2021/09/07 06:56:04;;;;;;;;;;;;;;;;;;5088624;28;19918;-75
2021/09/07 06:58:30;;;;;;;;;;;;;;;;;;5087559;28;20433;-75
2021/09/07 07:00:56;;;;;;;;;;;;;;;;;;5086808;28;19916;-74
2021/09/07 07:05:25;;;;;;;;;;;;;;;;;;5088564;27;19917;-72
2021/09/07 07:07:51;;;;;;;;;;;;;;;;;;5088214;28;19912;-73
2021/09/07 07:11:19;;;;;;;;;;;;;;;;;;5088698;27;19931;-72
2021/09/07 07:13:45;;;;;;;;;;;;;;;;;;5085925;28;19920;-72
2021/09/07 07:16:11;;;;;;;;;;;;;;;;;;5090900;28;20364;-71
2021/09/07 07:20:28;;;;;;;;;;;;;;;;;;5091298;27;19917;-71
2021/09/07 07:22:54;;;;;;;;;;;;;;;;;;5090316;28;19913;-73
2021/09/07 07:25:20;;;;;;;;;;;;;;;;;;5090629;28;20007;-72
2021/09/07 07:27:46;;;;;;;;;;;;;;;;;;5084178;28;19958;-71
2021/09/07 07:30:12;;;;;;;;;;;;;;;;;;5089608;28;19915;-71
2021/09/07 07:32:38;;;;;;;;;;;;;;;;;;5088612;28;20007;-71
2021/09/07 07:35:04;;;;;;;;;;;;;;;;;;5087219;28;19912;-73
2021/09/07 07:39:21;;;;;;;;;;;;;;;;;;5088695;27;19923;-72
2021/09/07 07:41:47;;;;;;;;;;;;;;;;;;5089637;28;20369;-72
2021/09/07 07:44:13;;;;;;;;;;;;;;;;;;5090249;28;19915;-73
2021/09/07 07:46:39;;;;;;;;;;;;;;;;;;5089832;28;19912;-71
2021/09/07 07:50:17;;;;;;;;;;;;;;;;;;5069446;28;19924;-71
2021/09/07 07:53:56;;;;;;;;;;;;;;;;;;5090798;27;19923;-73
2021/09/07 07:56:22;;;;;;;;;;;;;;;;;;5090818;28;19999;-73
2021/09/07 08:01:08;;;;;;;;;;;;;;;;;;5090588;27;19916;-72
2021/09/07 08:03:34;;;;;;;;;;;;;;;;;;5090236;28;20352;-70
2021/09/07 08:06:00;;;;;;;;;;;;;;;;;;5089728;28;19912;-74
2021/09/07 08:08:26;;;;;;;;;;;;;;;;;;5089383;28;19908;-72
2021/09/07 08:10:52;;;;;;;;;;;;;;;;;;5088845;28;19909;-76
2021/09/07 08:13:18;;;;;;;;;;;;;;;;;;5090292;28;19912;-72
2021/09/07 08:15:44;;;;;;;;;;;;;;;;;;5089291;28;19915;-79
2021/09/07 08:18:10;;;;;;;;;;;;;;;;;;5090234;28;20313;-74
2021/09/07 08:20:36;;;;;;;;;;;;;;;;;;5089774;28;19920;-75
2021/09/07 08:24:27;;;;;;;;;;;;;;;;;;5109191;27;20398;-74
2021/09/07 08:26:53;;;;;;;;;;;;;;;;;;5110586;28;19943;-72
2021/09/07 08:29:19;;;;;;;;;;;;;;;;;;5106609;28;19959;-73
2021/09/07 08:31:45;;;;;;;;;;;;;;;;;;5107788;28;20600;-73
2021/09/07 08:34:11;;;;;;;;;;;;;;;;;;5106856;28;19912;-74
2021/09/07 08:38:53;;;;;;;;;;;;;;;;;;5107622;27;19918;-73
2021/09/07 08:42:36;;;;;;;;;;;;;;;;;;5086296;27;19916;-71
2021/09/07 08:45:02;;;;;;;;;;;;;;;;;;5087966;28;19917;-73
2021/09/07 08:47:29;;;;;;;;;;;;;;;;;;5089400;28;20412;-74
2021/09/07 08:49:55;;;;;;;;;;;;;;;;;;5089177;28;19958;-73
2021/09/07 08:52:22;;;;;;;;;;;;;;;;;;5089539;28;19912;-75
2021/09/07 08:54:50;;;;;;;;;;;;;;;;;;5090996;28;20394;-75
2021/09/07 08:57:18;;;;;;;;;;;;;;;;;;5088062;28;19908;-76
2021/09/07 08:59:44;;;;;;;;;;;;;;;;;;5088862;28;20272;-70
2021/09/07 09:02:10;;;;;;;;;;;;;;;;;;5090169;28;19931;-70
2021/09/07 09:04:36;;;;;;;;;;;;;;;;;;5077841;28;20357;-72
2021/09/07 09:09:35;;;;;;;;;;;;;;;;;;5090434;27;19918;-72
2021/09/07 09:12:01;;;;;;;;;;;;;;;;;;5089170;28;20368;-72
2021/09/07 09:17:45;;;;;;;;;;;;;;;;;;5091032;27;19923;-72
2021/09/07 09:20:18;;;;;;;;;;;;;;;;;;5090934;28;20010;-71
2021/09/07 09:22:44;;;;;;;;;;;;;;;;;;5089579;28;19940;-70
2021/09/07 09:25:10;;;;;;;;;;;;;;;;;;5088923;28;19909;-72
2021/09/07 09:27:36;;;;;;;;;;;;;;;;;;5089540;28;19908;-71
2021/09/07 09:30:02;;;;;;;;;;;;;;;;;;5089702;28;19954;-71
2021/09/07 09:32:28;;;;;;;;;;;;;;;;;;5090387;28;19915;-72
2021/09/07 09:34:54;;;;;;;;;;;;;;;;;;5089287;28;19916;-69
2021/09/07 09:37:48;;;;;;;;;;;;;;;;;;5111501;27;19938;-67
2021/09/07 09:40:14;;;;;;;;;;;;;;;;;;5111103;28;20439;-70
2021/09/07 09:42:43;;;;;;;;;;;;;;;;;;5111555;28;20015;-71
2021/09/07 09:45:09;;;;;;;;;;;;;;;;;;5110692;28;19908;-71
2021/09/07 09:47:35;;;;;;;;;;;;;;;;;;5110022;28;19918;-68
2021/09/07 09:50:01;;;;;;;;;;;;;;;;;;5108249;28;19915;-68
2021/09/07 09:52:27;;;;;;;;;;;;;;;;;;5110364;28;19908;-67
2021/09/07 09:54:53;;;;;;;;;;;;;;;;;;5111272;28;19957;-67
2021/09/07 09:57:19;;;;;;;;;;;;;;;;;;5108394;28;19947;-68
2021/09/07 09:59:45;;;;;;;;;;;;;;;;;;5109272;28;19908;-67
2021/09/07 10:02:11;;;;;;;;;;;;;;;;;;5109781;28;19918;-68
2021/09/07 10:04:37;;;;;;;;;;;;;;;;;;5110273;28;19908;-67
2021/09/07 10:07:03;;;;;;;;;;;;;;;;;;5121064;27;19912;-69
2021/09/07 10:09:29;;;;;;;;;;;;;;;;;;5131417;27;19908;-72
2021/09/07 10:11:55;;;;;;;;;;;;;;;;;;5131447;27;20359;-72
2021/09/07 10:14:21;;;;;;;;;;;;;;;;;;5120469;27;19908;-72
2021/09/07 10:16:56;;;;;;;;;;;;;;;;;;5109367;28;19919;-77
2021/09/07 10:19:28;;;;;;;;;;;;;;;;;;5113606;28;20368;-72
2021/09/07 10:24:38;;;;;;;;;;;;;;;;;;5110143;28;19950;-74
2021/09/07 10:27:04;;;;;;;;;;;;;;;;;;5127857;27;19947;-73
2021/09/07 10:29:30;;;;;;;;;;;;;;;;;;5131086;27;19998;-73
2021/09/07 10:31:57;;;;;;;;;;;;;;;;;;5110088;28;19954;-73
2021/09/07 10:34:24;;;;;;;;;;;;;;;;;;5107564;28;19916;-75
2021/09/07 10:36:51;;;;;;;;;;;;;;;;;;5109289;28;19950;-74
2021/09/07 10:39:17;;;;;;;;;;;;;;;;;;5129194;27;20303;-73
2021/09/07 10:41:43;;;;;;;;;;;;;;;;;;5108932;27;20007;-74
2021/09/07 10:44:09;;;;;;;;;;;;;;;;;;5108418;28;19963;-72
2021/09/07 10:46:35;;;;;;;;;;;;;;;;;;5109454;28;19951;-70
2021/09/07 10:49:00;;;;;;;;;;;;;;;;;;5096820;28;19913;-78
2021/09/07 10:51:26;;;;;;;;;;;;;;;;;;5095329;28;19908;-76
2021/09/07 10:53:52;;;;;;;;;;;;;;;;;;5098779;28;19915;-76
2021/09/07 10:56:18;;;;;;;;;;;;;;;;;;5087064;28;20738;-75
2021/09/07 10:58:44;;;;;;;;;;;;;;;;;;5106756;28;19927;-76
2021/09/07 11:01:10;;;;;;;;;;;;;;;;;;5102088;28;19915;-76
2021/09/07 11:03:36;;;;;;;;;;;;;;;;;;5109758;28;20011;-79
2021/09/07 11:06:02;;;;;;;;;;;;;;;;;;5094586;28;19914;-78
2021/09/07 11:08:28;;;;;;;;;;;;;;;;;;5094300;28;19916;-74
2021/09/07 11:10:54;;;;;;;;;;;;;;;;;;5084840;28;20284;-77
2021/09/07 11:13:20;;;;;;;;;;;;;;;;;;5074498;28;19915;-73
2021/09/07 11:15:46;;;;;;;;;;;;;;;;;;5092612;28;19912;-72
2021/09/07 11:18:13;;;;;;;;;;;;;;;;;;5089118;28;20280;-70
2021/09/07 11:20:39;;;;;;;;;;;;;;;;;;5092997;28;19977;-73
2021/09/07 11:23:05;;;;;;;;;;;;;;;;;;5092562;28;19908;-74
2021/09/07 11:25:30;;;;;;;;;;;;;;;;;;5092506;28;20003;-75
2021/09/07 11:27:58;;;;;;;;;;;;;;;;;;5094586;28;19908;-73
2021/09/07 11:30:24;;;;;;;;;;;;;;;;;;5078208;28;20360;-81
2021/09/07 11:32:50;;;;;;;;;;;;;;;;;;5074508;28;19915;-77
2021/09/07 11:35:16;;;;;;;;;;;;;;;;;;5075299;28;20007;-75
2021/09/07 11:37:42;;;;;;;;;;;;;;;;;;5074008;28;20007;-77
2021/09/07 11:40:08;;;;;;;;;;;;;;;;;;5072815;28;19912;-79
2021/09/07 11:42:34;;;;;;;;;;;;;;;;;;5082400;28;19915;-78
2021/09/07 11:45:01;;;;;;;;;;;;;;;;;;5093387;28;19908;-70
2021/09/07 11:47:27;;;;;;;;;;;;;;;;;;5094070;28;20404;-72
2021/09/07 11:49:53;;;;;;;;;;;;;;;;;;5093950;28;19908;-72
2021/09/07 11:52:19;;;;;;;;;;;;;;;;;;5092148;28;20364;-76
2021/09/07 11:54:45;;;;;;;;;;;;;;;;;;5087507;28;19920;-77
2021/09/07 11:57:11;;;;;;;;;;;;;;;;;;5078684;28;19924;-79
2021/09/07 11:59:37;;;;;;;;;;;;;;;;;;5073075;28;20403;-77
2021/09/07 12:02:03;;;;;;;;;;;;;;;;;;5074917;28;19908;-82
2021/09/07 12:04:29;;;;;;;;;;;;;;;;;;5075994;28;19916;-82
2021/09/07 12:07:04;;;;;;;8.20;2.50;;;;;;;;;;5101888;28;20402;-76
2021/09/07 12:09:30;;;;;;;8.45;2.35;;;;;;;;;;5093471;28;20437;-75
2021/09/07 12:12:05;;;;;;;3.50;2.00;;;;;;;;;;5094608;28;20020;-81
2021/09/07 12:14:41;;;;;;;3.33;1.90;;;;;;;;;;5094729;28;20044;-80
2021/09/07 12:17:08;;;;;;;4.10;2.22;;;;;;;;;;5099906;28;20023;-76
2021/09/07 12:19:35;;;;;;;4.07;2.05;;;;;;;;;;5106099;28;20349;-74
2021/09/07 12:22:17;;;;;;;4.28;2.08;;;;;;;;;;5107358;28;20024;-74
2021/09/07 12:24:57;;;;;;;3.45;2.00;;;;;;;;;;5114298;28;20130;-72
2021/09/07 12:27:27;;;;;;;5.20;2.08;;;;;;;;;;5114087;28;20024;-72
2021/09/07 12:30:12;;;;;;;5.40;2.20;;;;;;;;;;5110539;28;20019;-73
2021/09/07 12:32:47;;;;;;;4.68;2.30;;;;;;;;;;5093408;28;20028;-72
2021/09/07 12:35:25;;;;;;;2.92;1.80;;;;;;;;;;5073679;28;20036;-72
2021/09/07 12:37:51;;;;;;;5.50;2.08;;;;;;;;;;5074057;28;20107;-71
2021/09/07 12:40:17;;;;;;;4.32;2.13;;;;;;;;;;5118606;27;20016;-70
2021/09/07 12:42:44;;;;;;;2.90;1.70;;;;;;;;;;5110111;28;20032;-66
2021/09/07 12:45:10;;;;;;;3.42;2.25;;;;;;;;;;5114479;28;20407;-71
2021/09/07 12:47:36;;;;;;;3.10;1.63;;;;;;;;;;5114437;28;20019;-70
2021/09/07 12:50:03;;;;;;;5.15;2.20;;;;;;;;;;5113228;28;20467;-78
2021/09/07 12:52:29;;;;;;;5.43;2.25;;;;;;;;;;5114331;28;20061;-69
2021/09/07 12:54:55;;;;;;;2.70;1.42;;;;;;;;;;5095585;28;20023;-67
2021/09/07 12:57:21;;;;;;;5.00;2.08;;;;;;;;;;5114121;28;20069;-70
2021/09/07 12:59:47;;;;;;;2.85;1.60;;;;;;;;;;5112554;28;20030;-71
2021/09/07 13:02:13;;;;;;;4.82;2.20;;;;;;;;;;5111898;28;20027;-70
2021/09/07 13:04:40;;;;;;;4.43;2.08;;;;;;;;;;5111906;28;20026;-69
2021/09/07 13:07:06;;;;;;;4.97;2.05;;;;;;;;;;5112050;28;20020;-69
2021/09/07 13:09:32;;;;;;;4.95;2.40;;;;;;;;;;5093437;28;20571;-71
2021/09/07 13:11:58;;;;;;;4.78;2.10;;;;;;;;;;5101035;28;20020;-70
2021/09/07 13:14:24;;;;;;;4.22;2.13;;;;;;;;;;5092394;28;20024;-70
2021/09/07 13:16:51;;;;;;;5.78;2.47;;;;;;;;;;5092413;28;20035;-70
2021/09/07 13:19:17;;;;;;;3.55;1.88;;;;;;;;;;5090742;28;20374;-70
2021/09/07 13:21:43;;;;;;;4.82;2.22;;;;;;;;;;5073336;28;20077;-70
2021/09/07 13:24:09;;;;;;;3.42;1.90;;;;;;;;;;5091182;28;20028;-71
2021/09/07 13:26:36;;;;;;;4.85;2.10;;;;;;;;;;5091026;28;20028;-71
2021/09/07 13:29:02;;;;;;;3.97;2.20;;;;;;;;;;5072291;28;20454;-70
2021/09/07 13:31:29;;;;;;;3.63;1.80;;;;;;;;;;5089987;28;20051;-70
2021/09/07 13:33:55;;;;;;;4.45;2.00;;;;;;;;;;5073423;28;20023;-70
2021/09/07 13:36:22;;;;;;;5.00;1.98;;;;;;;;;;5078400;28;20475;-70
2021/09/07 13:38:48;;;;;;;3.85;1.90;;;;;;;;;;5090981;28;20027;-70
2021/09/07 13:41:14;;;;;;;3.45;1.88;;;;;;;;;;5092137;28;20020;-70
2021/09/07 13:43:41;;;;;;;4.05;1.80;;;;;;;;;;5092592;28;20047;-70
2021/09/07 13:46:07;;;;;;;2.60;1.58;;;;;;;;;;5091238;28;20027;-70
2021/09/07 13:48:35;;;;;;;5.93;1.80;;;;;;;;;;5093353;28;20124;-69
2021/09/07 13:51:02;;;;;;;4.10;1.98;;;;;;;;;;5092287;28;20081;-70
2021/09/07 13:53:29;;;;;;;3.90;2.10;;;;;;;;;;5093318;28;20115;-70
2021/09/07 13:55:55;;;;;;;3.28;1.58;;;;;;;;;;5093323;28;20039;-70
2021/09/07 13:58:21;;;;;;;4.15;1.92;;;;;;;;;;5091637;28;20076;-70
2021/09/07 14:00:47;;;;;;;4.68;2.33;;;;;;;;;;5093003;28;20034;-69
2021/09/07 14:03:13;;;;;;;6.93;2.35;;;;;;;;;;5093256;28;20054;-71
2021/09/07 14:05:39;;;;;;;3.70;2.03;;;;;;;;;;5093028;28;20032;-71
2021/09/07 14:08:06;;;;;;;4.97;2.45;;;;;;;;;;5093225;28;20095;-71
2021/09/07 14:10:32;;;;;;;4.82;2.30;;;;;;;;;;5091592;28;20036;-70
2021/09/07 14:12:58;;;;;;;3.42;2.15;;;;;;;;;;5091027;28;20030;-70
2021/09/07 14:15:25;;;;;;;4.05;2.25;;;;;;;;;;5092701;28;20051;-69
2021/09/07 14:17:51;;;;;;;7.78;2.13;;;;;;;;;;5092700;28;20032;-70
2021/09/07 14:20:18;;;;;;;7.80;2.00;;;;;;;;;;5092411;28;20036;-71
2021/09/07 14:22:44;;;;;;;3.78;1.90;;;;;;;;;;5093658;28;20024;-70
2021/09/07 14:25:11;;;;;;;4.70;2.05;;;;;;;;;;5095412;28;20016;-70
2021/09/07 14:27:37;;;;;;;3.80;2.00;;;;;;;;;;5095222;28;20051;-70
2021/09/07 14:30:04;;;;;;;4.05;2.10;;;;;;;;;;5096875;28;20020;-71
2021/09/07 14:32:31;;;;;;;5.95;2.45;;;;;;;;;;5096750;28;20472;-70
2021/09/07 14:34:57;;;;;;;7.28;2.40;;;;;;;;;;5096384;28;20028;-71
2021/09/07 14:37:24;;;;;;;6.18;2.35;;;;;;;;;;5096248;28;20044;-68
2021/09/07 14:39:51;;;;;;;5.55;2.42;;;;;;;;;;5096499;28;20044;-71
2021/09/07 14:42:17;;;;;;;9.13;2.03;;;;;;;;;;5096302;28;20028;-70
2021/09/07 14:44:44;;;;;;;4.10;1.98;;;;;;;;;;5096632;28;20399;-70
2021/09/07 14:47:11;;;;;;;4.20;1.83;;;;;;;;;;5096629;28;20073;-71
2021/09/07 14:49:38;;;;;;;3.83;1.73;;;;;;;;;;5096033;28;20027;-70
2021/09/07 14:52:04;;;;;;;3.92;1.83;;;;;;;;;;5096602;28;20024;-71
2021/09/07 14:54:31;;;;;;;3.65;2.10;;;;;;;;;;5095635;28;20134;-70
2021/09/07 14:56:57;;;;;;;4.03;1.92;;;;;;;;;;5096225;28;20085;-71
2021/09/07 14:59:23;;;;;;;3.22;1.70;;;;;;;;;;5096275;28;20393;-71
2021/09/07 15:01:49;;;;;;;2.55;1.58;;;;;;;;;;5097384;28;20103;-71
2021/09/07 15:04:15;;;;;;;8.18;2.10;;;;;;;;;;5095963;28;20476;-71
2021/09/07 15:06:43;;;;;;;5.43;1.75;;;;;;;;;;5096109;28;20020;-71
2021/09/07 15:09:09;;;;;;;6.82;1.98;;;;;;;;;;5095903;28;20051;-71
2021/09/07 15:11:35;;;;;;;3.55;1.80;;;;;;;;;;5094774;28;20115;-71
2021/09/07 15:14:02;;;;;;;3.05;1.65;;;;;;;;;;5096169;28;20190;-71
2021/09/07 15:16:28;;;;;;;3.45;1.63;;;;;;;;;;5095516;28;20030;-71
2021/09/07 15:18:54;;;;;;;3.47;1.95;;;;;;;;;;5095163;28;20408;-71
2021/09/07 15:21:21;;;;;;;4.03;1.98;;;;;;;;;;5093795;28;20035;-71
2021/09/07 15:23:47;;;;;;;4.35;2.00;;;;;;;;;;5093890;28;20024;-71
2021/09/07 15:26:13;;;;;;;5.07;2.20;;;;;;;;;;5095685;28;20048;-69
2021/09/07 15:28:39;;;;;;;4.80;2.05;;;;;;;;;;5094192;28;20024;-71
2021/09/07 15:31:05;;;;;;;4.32;2.03;;;;;;;;;;5093324;28;20380;-69
2021/09/07 15:33:32;;;;;;;3.45;1.90;;;;;;;;;;5093414;28;20024;-70
2021/09/07 15:35:58;;;;;;;2.97;1.95;;;;;;;;;;5093252;28;20547;-71
2021/09/07 15:38:24;;;;;;;5.38;2.35;;;;;;;;;;5094029;28;20084;-71
2021/09/07 15:40:50;;;;;;;3.70;2.10;;;;;;;;;;5093956;28;20105;-70
2021/09/07 15:43:16;;;;;;;5.05;2.45;;;;;;;;;;5094600;28;20027;-70
2021/09/07 15:45:43;;;;;;;8.05;2.80;;;;;;;;;;5094415;28;20073;-70
2021/09/07 15:48:09;;;;;;;5.85;2.45;;;;;;;;;;5094086;28;20416;-69
2021/09/07 15:50:35;;;;;;;5.38;2.28;;;;;;;;;;5095558;28;20480;-70
2021/09/07 15:53:03;;;;;;;6.38;2.22;;;;;;;;;;5094838;28;20023;-72
2021/09/07 15:55:30;;;;;;;4.78;2.60;;;;;;;;;;5095210;28;20023;-71
2021/09/07 15:57:56;;;;;;;4.88;2.13;;;;;;;;;;5094761;28;20058;-70
2021/09/07 16:00:22;;;;;;;4.78;2.78;;;;;;;;;;5095598;28;20446;-71
2021/09/07 16:02:49;;;;;;;6.45;2.10;;;;;;;;;;5094977;28;20472;-71
2021/09/07 16:05:20;;;;;;;5.57;2.30;;;;;;;;;;5094602;28;20066;-71
2021/09/07 16:07:46;;;;;;;4.25;2.50;;;;;;;;;;5095180;28;20016;-70
2021/09/07 16:10:12;;;;;;;5.55;2.38;;;;;;;;;;5094907;28;20361;-69
2021/09/07 16:12:39;;;;;;;5.85;2.85;;;;;;;;;;5093173;28;20492;-71
2021/09/07 16:15:05;;;;;;;4.00;2.10;;;;;;;;;;5093613;28;20075;-71
2021/09/07 16:17:31;;;;;;;7.80;2.55;;;;;;;;;;5094648;28;20111;-70
2021/09/07 16:19:57;;;;;;;4.70;2.58;;;;;;;;;;5092741;28;20020;-71
2021/09/07 16:22:24;;;;;;;5.03;2.35;;;;;;;;;;5094687;28;20389;-71
2021/09/07 16:24:50;;;;;;;4.80;2.10;;;;;;;;;;5094716;28;20145;-71
2021/09/07 16:27:16;;;;;;;10.10;2.90;;;;;;;;;;5094218;28;20020;-70
2021/09/07 16:29:42;;;;;;;6.50;2.60;;;;;;;;;;5094603;28;20100;-71
2021/09/07 16:32:09;;;;;;;10.20;3.30;;;;;;;;;;5094420;28;20495;-70
2021/09/07 16:34:35;;;;;;;9.15;4.50;;;;;;;;;;5094190;28;20027;-70
2021/09/07 16:37:02;;;;;;;14.32;7.13;;;;;;;;;;5094193;28;20044;-70
2021/09/07 16:39:29;;;;;;;10.02;6.10;;;;;;;;;;5094579;28;20024;-70
2021/09/07 16:41:55;;;;;;;8.43;3.67;;;;;;;;;;5093978;28;20031;-69
2021/09/07 16:44:21;;;;;;;7.30;3.25;;;;;;;;;;5094261;28;20099;-71
2021/09/07 16:47:29;;;;;;;8.73;3.40;;;;;;;;;;5111603;27;20384;-69
2021/09/07 16:49:55;;;;;;;9.63;3.42;;;;;;;;;;5111353;28;20073;-70
2021/09/07 16:52:21;;;;;;;6.10;2.20;;;;;;;;;;5111143;28;20048;-70
2021/09/07 16:55:06;;;;;;;6.13;2.75;;;;;;;;;;5110833;28;20430;-70
2021/09/07 16:57:32;;;;;;;3.78;2.00;;;;;;;;;;5111543;28;20020;-70
2021/09/07 17:00:00;;;;;;;5.75;2.00;;;;;;;;;;5111336;28;20099;-70
2021/09/07 17:02:26;;;;;;;5.05;1.90;;;;;;;;;;5110627;28;20018;-70
2021/09/07 17:04:53;;;;;;;3.72;1.50;;;;;;;;;;5111001;28;20035;-70
2021/09/07 17:07:31;;;;;;;3.53;1.60;;;;;;;;;;5110829;28;20027;-70
2021/09/07 17:10:00;;;;;;;4.85;1.73;;;;;;;;;;5110638;28;20023;-70
2021/09/07 17:12:27;;;;;;;4.68;1.58;;;;;;;;;;5110827;28;20384;-70
2021/09/07 17:14:53;;;;;;;3.20;1.20;;;;;;;;;;5111070;28;20500;-70
2021/09/07 17:17:20;;;;;;;2.97;1.23;;;;;;;;;;5110384;28;20024;-71
2021/09/07 17:19:47;;;;;;;4.90;1.52;;;;;;;;;;5110701;28;20052;-68
2021/09/07 17:22:13;;;;;;;2.15;1.30;;;;;;;;;;5110751;28;20026;-70
2021/09/07 17:24:39;;;;;;;2.95;1.45;;;;;;;;;;5110356;28;20034;-69
2021/09/07 17:27:51;;;;;;;2.85;1.17;;;;;;;;;;5111843;27;20392;-70
2021/09/07 17:30:19;;;;;;;4.15;1.48;;;;;;;;;;5109617;28;20404;-70
2021/09/07 17:33:55;;;;;;;3.88;1.30;;;;;;;;;;5111522;27;20501;-71
2021/09/07 17:39:20;;;;;;;7.00;1.50;;;;;;;;;;5111547;28;20078;-69
2021/09/07 17:42:01;;;;;;;2.78;1.40;;;;;;;;;;5111590;27;20389;-68
2021/09/07 17:44:27;;;;;;;4.07;1.55;;;;;;;;;;5126712;28;20032;-70
2021/09/07 17:47:10;;;;;;;4.18;1.60;;;;;;;;;;5111474;27;20389;-70
2021/09/07 17:53:30;;;;;;;3.53;1.25;;;;;;;;;;5112041;27;20473;-70
2021/09/07 17:55:56;;;;;;;4.72;1.13;;;;;;;;;;5111258;28;20024;-71
2021/09/07 17:58:22;;;;;;;2.70;1.08;;;;;;;;;;5110774;28;20059;-69
2021/09/07 18:00:48;;;;;;;3.10;1.20;;;;;;;;;;5111185;28;20020;-70
2021/09/07 18:03:14;;;;;;;2.33;1.10;;;;;;;;;;5111144;28;20081;-70
2021/09/07 18:05:41;;;;;;;5.43;1.33;;;;;;;;;;5110772;28;20536;-70
2021/09/07 18:08:07;;;;;;;3.47;1.30;;;;;;;;;;5111032;28;20036;-71